KPOF/POF METAR and TAF weather

Enter ICAO airport designator
Station Type Date Time Source
KPOF METAR 2020/01/21 18:33 UTC NOAA

KPOF 211833Z AUTO 19005KT 10SM BKN028 M02/M08 A3062 RMK AO2 T10171083


Station Type Date Time Source
KPOF Decoded METAR 2020/01/21 18:33 UTC NOAA

POPLAR BLUFF MUN AIRPORT, MO, United States (KPOF) 36-46N 090-19W 100M
Jan 21, 2020 - 01:33 PM EST / 2020.01.21 1833 UTC
Wind: from the S (190 degrees) at 6 MPH (5 KT):0
Visibility: 10 mile(s):0
Sky conditions: mostly cloudy
Temperature: 28.9 F (-1.7 C)
Windchill: 23 F (-5 C):1
Dew Point: 17.1 F (-8.3 C)
Relative Humidity: 60%
Pressure (altimeter): 30.62 in. Hg (1036 hPa)
ob: KPOF 211833Z AUTO 19005KT 10SM BKN028 M02/M08 A3062 RMK AO2 T10171083
cycle: 18

Station Type Date Time Source
KPOF TAF UTC NOAA

Error!

Example: see airport list